createdAt,value
2017-11-09T00:00:25.661Z,7.30
2017-11-09T00:02:52.748Z,7.30
2017-11-09T00:05:25.212Z,7.20
2017-11-09T00:07:52.256Z,7.30
2017-11-09T00:10:19.295Z,7.20
2017-11-09T00:12:46.366Z,7.20
2017-11-09T00:15:12.650Z,7.20
2017-11-09T00:17:38.967Z,7.30
2017-11-09T00:20:05.279Z,7.30
2017-11-09T00:22:31.592Z,7.30
2017-11-09T00:24:57.894Z,7.30
2017-11-09T00:27:24.958Z,7.40
2017-11-09T00:29:51.260Z,7.40
2017-11-09T00:32:18.312Z,7.40
2017-11-09T00:34:45.373Z,7.30
2017-11-09T00:37:11.679Z,7.30
2017-11-09T00:39:37.990Z,7.40
2017-11-09T00:42:04.321Z,7.30
2017-11-09T00:44:30.712Z,7.30
2017-11-09T00:46:57.024Z,7.30
2017-11-09T00:49:23.380Z,7.20
2017-11-09T00:51:49.675Z,7.30
2017-11-09T00:54:16.758Z,7.30
2017-11-09T00:56:43.060Z,7.30
2017-11-09T00:59:10.108Z,7.30
2017-11-09T01:01:37.164Z,7.30
2017-11-09T01:04:03.495Z,7.20
2017-11-09T01:06:29.814Z,7.30
2017-11-09T01:08:56.855Z,7.20
2017-11-09T01:11:23.896Z,7.30
2017-11-09T01:13:50.254Z,7.30
2017-11-09T01:16:16.564Z,7.30
2017-11-09T01:18:43.621Z,7.30
2017-11-09T01:21:09.923Z,7.30
2017-11-09T01:23:36.234Z,7.30
2017-11-09T01:26:02.569Z,7.30
2017-11-09T01:28:28.868Z,7.30
2017-11-09T01:30:55.207Z,7.40
2017-11-09T01:33:21.504Z,7.30
2017-11-09T01:35:47.841Z,7.30
2017-11-09T01:38:14.170Z,7.30
2017-11-09T01:40:40.499Z,7.30
2017-11-09T01:43:06.843Z,7.40
2017-11-09T01:45:33.169Z,7.40
2017-11-09T01:47:59.469Z,7.40
2017-11-09T01:50:26.519Z,7.40
2017-11-09T01:52:53.559Z,7.40
2017-11-09T01:55:20.636Z,7.30
2017-11-09T01:57:46.962Z,7.30
2017-11-09T02:00:13.256Z,7.40
2017-11-09T02:02:40.367Z,7.40
2017-11-09T02:05:06.717Z,7.30
2017-11-09T02:07:33.026Z,7.30
2017-11-09T02:09:59.394Z,7.30
2017-11-09T02:12:25.693Z,7.30
2017-11-09T02:14:52.033Z,7.20
2017-11-09T02:17:18.384Z,7.20
2017-11-09T02:19:44.708Z,7.20
2017-11-09T02:22:11.055Z,7.20
2017-11-09T02:24:37.395Z,7.20
2017-11-09T02:27:03.731Z,7.10
2017-11-09T02:29:30.061Z,7.10
2017-11-09T02:31:56.401Z,7.10
2017-11-09T02:34:23.068Z,7.20
2017-11-09T02:36:49.406Z,7.20
2017-11-09T02:39:15.718Z,7.30
2017-11-09T02:41:42.056Z,7.30
2017-11-09T02:44:09.362Z,7.30
2017-11-09T02:46:36.412Z,7.30
2017-11-09T02:49:02.745Z,7.20
2017-11-09T02:51:29.822Z,7.20
2017-11-09T02:53:56.114Z,7.20
2017-11-09T02:56:23.179Z,7.30
2017-11-09T02:58:49.537Z,7.30
2017-11-09T03:01:15.946Z,7.30
2017-11-09T03:03:43.913Z,7.20
2017-11-09T03:06:10.229Z,7.20
2017-11-09T03:08:37.290Z,7.20
2017-11-09T03:11:03.614Z,7.20
2017-11-09T03:13:30.672Z,7.20
2017-11-09T03:15:56.962Z,7.10
2017-11-09T03:18:24.063Z,7.20
2017-11-09T03:20:50.381Z,7.20
2017-11-09T03:23:16.678Z,7.10
2017-11-09T03:25:43.735Z,7.10
2017-11-09T03:28:10.053Z,7.10
2017-11-09T03:30:36.358Z,7.10
2017-11-09T03:33:02.675Z,7.10
2017-11-09T03:35:28.975Z,7.10
2017-11-09T03:37:55.312Z,7.10
2017-11-09T03:40:21.614Z,7.20
2017-11-09T03:42:47.930Z,7.20
2017-11-09T03:45:14.257Z,7.30
2017-11-09T03:47:40.577Z,7.30
2017-11-09T03:50:06.899Z,7.30
2017-11-09T03:52:33.207Z,7.20
2017-11-09T03:54:59.519Z,7.20
2017-11-09T03:57:25.822Z,7.20
2017-11-09T03:59:52.882Z,7.20
2017-11-09T04:02:19.932Z,7.20
2017-11-09T04:04:47.015Z,7.20
2017-11-09T04:07:13.362Z,7.20
2017-11-09T04:09:39.672Z,7.30
2017-11-09T04:12:05.982Z,7.30
2017-11-09T04:14:32.293Z,7.20
2017-11-09T04:16:58.607Z,7.20
2017-11-09T04:19:25.666Z,7.10
2017-11-09T04:21:52.705Z,7.30
2017-11-09T04:24:19.767Z,7.30
2017-11-09T04:26:46.798Z,7.20
2017-11-09T04:29:13.866Z,7.30
2017-11-09T04:31:40.919Z,7.30
2017-11-09T04:34:07.255Z,7.20
2017-11-09T04:36:33.550Z,7.30
2017-11-09T04:38:59.895Z,7.20
2017-11-09T04:41:26.947Z,7.20
2017-11-09T04:43:53.254Z,7.20
2017-11-09T04:46:19.570Z,7.30
2017-11-09T04:48:45.893Z,7.20
2017-11-09T04:51:12.218Z,7.30
2017-11-09T04:53:38.532Z,7.20
2017-11-09T04:56:04.824Z,7.20
2017-11-09T04:58:31.868Z,7.30
2017-11-09T05:00:58.267Z,7.30
2017-11-09T05:03:24.552Z,7.20
2017-11-09T05:05:50.860Z,7.10
2017-11-09T05:08:17.183Z,7.10
2017-11-09T05:10:44.235Z,7.20
2017-11-09T05:13:11.272Z,7.10
2017-11-09T05:15:37.585Z,7.10
2017-11-09T05:18:03.883Z,7.10
2017-11-09T05:20:30.204Z,7.10
2017-11-09T05:22:56.500Z,7.10
2017-11-09T05:25:22.782Z,7.10
2017-11-09T05:27:49.087Z,7.10
2017-11-09T05:30:15.415Z,7.10
2017-11-09T05:32:41.732Z,7.10
2017-11-09T05:35:08.851Z,7.20
2017-11-09T05:37:36.668Z,7.10
2017-11-09T05:40:02.977Z,7.10
2017-11-09T05:42:30.025Z,7.00
2017-11-09T05:44:57.069Z,7.10
2017-11-09T05:47:24.125Z,7.10
2017-11-09T05:49:51.156Z,7.00
2017-11-09T05:52:18.199Z,7.10
2017-11-09T05:54:45.272Z,7.10
2017-11-09T05:57:11.613Z,7.10
2017-11-09T05:59:37.930Z,7.10
2017-11-09T06:02:04.280Z,7.10
2017-11-09T06:04:30.591Z,7.10
2017-11-09T06:06:56.917Z,7.00
2017-11-09T06:09:23.234Z,7.00
2017-11-09T06:11:49.593Z,6.90
2017-11-09T06:14:15.908Z,6.90
2017-11-09T06:16:42.473Z,7.00
2017-11-09T06:19:08.787Z,7.20
2017-11-09T06:21:35.083Z,7.10
2017-11-09T06:24:01.410Z,7.00
2017-11-09T06:26:27.743Z,7.10
2017-11-09T06:28:54.817Z,7.00
2017-11-09T06:31:21.119Z,7.00
2017-11-09T06:33:48.239Z,7.20
2017-11-09T06:36:14.566Z,7.10
2017-11-09T06:38:40.891Z,7.10
2017-11-09T06:41:07.234Z,7.00
2017-11-09T06:43:33.547Z,7.00
2017-11-09T06:45:59.841Z,7.00
2017-11-09T06:48:26.925Z,7.20
2017-11-09T06:50:53.250Z,7.10
2017-11-09T06:53:19.590Z,7.20
2017-11-09T06:55:45.929Z,7.10
2017-11-09T06:58:12.254Z,7.10
2017-11-09T07:00:38.590Z,7.00
2017-11-09T07:03:05.713Z,7.10
2017-11-09T07:05:32.039Z,7.10
2017-11-09T07:07:58.357Z,7.10
2017-11-09T07:10:24.711Z,7.00
2017-11-09T07:12:51.031Z,7.00
2017-11-09T07:15:17.464Z,7.10
2017-11-09T07:17:44.693Z,7.00
2017-11-09T07:20:11.128Z,7.00
2017-11-09T07:22:37.486Z,7.00
2017-11-09T07:25:03.835Z,7.10
2017-11-09T07:27:31.660Z,7.00
2017-11-09T07:29:58.012Z,7.00
2017-11-09T07:32:24.351Z,7.20
2017-11-09T07:34:50.697Z,7.20
2017-11-09T07:37:16.983Z,7.20
2017-11-09T07:39:43.331Z,7.20
2017-11-09T07:42:09.635Z,7.10
2017-11-09T07:44:35.966Z,7.10
2017-11-09T07:47:03.027Z,7.10
2017-11-09T07:49:29.347Z,7.10
2017-11-09T07:51:55.675Z,7.10
2017-11-09T07:54:21.978Z,7.10
2017-11-09T07:56:48.287Z,7.10
2017-11-09T07:59:14.579Z,7.10
2017-11-09T08:01:40.887Z,7.10
2017-11-09T08:04:07.237Z,7.10
2017-11-09T08:06:33.570Z,7.10
2017-11-09T08:08:59.894Z,7.10
2017-11-09T08:11:26.381Z,7.10
2017-11-09T08:13:52.686Z,7.10
2017-11-09T08:16:19.017Z,7.10
2017-11-09T08:18:45.352Z,7.20
2017-11-09T08:21:11.670Z,7.20
2017-11-09T08:23:37.970Z,7.10
2017-11-09T08:26:07.061Z,7.20
2017-11-09T08:28:36.627Z,7.30
2017-11-09T08:31:05.245Z,7.20
2017-11-09T08:33:37.417Z,7.20
2017-11-09T08:36:04.718Z,7.20
2017-11-09T08:38:31.132Z,7.10
2017-11-09T08:40:57.504Z,7.20
2017-11-09T08:43:23.808Z,7.20
2017-11-09T08:45:50.125Z,7.20
2017-11-09T08:48:16.443Z,7.30
2017-11-09T08:50:42.770Z,7.30
2017-11-09T08:53:09.123Z,7.30
2017-11-09T08:55:35.431Z,7.30
2017-11-09T08:58:01.782Z,7.30
2017-11-09T09:00:28.098Z,7.20
2017-11-09T09:02:54.449Z,7.20
2017-11-09T09:05:20.766Z,7.30
2017-11-09T09:07:47.067Z,7.30
2017-11-09T09:10:13.420Z,7.30
2017-11-09T09:12:39.811Z,7.40
2017-11-09T09:15:06.881Z,7.40
2017-11-09T09:17:33.984Z,7.40
2017-11-09T09:20:01.082Z,7.50
2017-11-09T09:22:38.190Z,7.40
2017-11-09T09:25:10.615Z,7.40
2017-11-09T09:27:37.710Z,7.50
2017-11-09T09:30:06.986Z,7.50
2017-11-09T09:32:35.710Z,7.50
2017-11-09T09:35:17.015Z,7.50
2017-11-09T09:37:46.501Z,7.50
2017-11-09T09:40:16.837Z,7.50
2017-11-09T09:42:44.269Z,7.50
2017-11-09T09:45:10.604Z,7.50
2017-11-09T09:47:36.964Z,7.60
2017-11-09T09:50:04.056Z,7.60
2017-11-09T09:52:30.416Z,7.50
2017-11-09T09:54:56.738Z,7.60
2017-11-09T09:57:23.062Z,7.50
2017-11-09T09:59:49.411Z,7.50
2017-11-09T10:02:15.737Z,7.70
2017-11-09T10:04:42.139Z,7.70
2017-11-09T10:07:08.477Z,7.70
2017-11-09T10:09:34.822Z,7.80
2017-11-09T10:12:01.179Z,7.70
2017-11-09T10:14:27.504Z,7.80
2017-11-09T10:16:53.824Z,7.70
2017-11-09T10:19:21.690Z,7.70
2017-11-09T10:21:47.998Z,7.70
2017-11-09T10:24:14.374Z,7.70
2017-11-09T10:26:40.687Z,7.70
2017-11-09T10:29:07.404Z,7.80
2017-11-09T10:31:33.721Z,7.70
2017-11-09T10:34:02.113Z,7.70
2017-11-09T10:36:28.438Z,7.70
2017-11-09T10:38:54.755Z,7.70
2017-11-09T10:41:21.118Z,7.70
2017-11-09T10:43:47.464Z,7.70
2017-11-09T10:46:13.820Z,7.80
2017-11-09T10:48:40.926Z,7.90
2017-11-09T10:51:07.292Z,7.80
2017-11-09T10:53:34.384Z,7.80
2017-11-09T10:56:00.709Z,7.80
2017-11-09T10:58:27.072Z,7.80
2017-11-09T11:00:53.407Z,7.80
2017-11-09T11:03:20.517Z,8.10
2017-11-09T11:05:46.881Z,8.10
2017-11-09T11:08:13.206Z,8.10
2017-11-09T11:10:39.588Z,8.10
2017-11-09T11:13:06.665Z,8.10
2017-11-09T11:15:33.022Z,8.00
2017-11-09T11:17:59.385Z,8.20
2017-11-09T11:20:25.718Z,8.30
2017-11-09T11:22:52.811Z,8.30
2017-11-09T11:25:19.156Z,8.20
2017-11-09T11:27:45.460Z,8.40
2017-11-09T11:30:11.830Z,8.20
2017-11-09T11:32:38.180Z,8.20
2017-11-09T11:35:05.297Z,8.30
2017-11-09T11:37:31.623Z,8.30
2017-11-09T11:39:57.960Z,8.50
2017-11-09T11:42:24.277Z,8.60
2017-11-09T11:44:50.592Z,8.60
2017-11-09T11:47:16.948Z,8.60
2017-11-09T11:49:43.347Z,8.60
2017-11-09T11:52:09.793Z,8.50
2017-11-09T11:54:36.200Z,8.50
2017-11-09T11:57:02.601Z,8.40
2017-11-09T11:59:29.697Z,8.40
2017-11-09T12:01:56.066Z,8.30
2017-11-09T12:04:23.278Z,8.30
2017-11-09T12:06:49.610Z,8.20
2017-11-09T12:09:15.991Z,8.40
2017-11-09T12:11:47.170Z,8.40
2017-11-09T12:14:13.499Z,8.30
2017-11-09T12:16:39.834Z,8.30
2017-11-09T12:19:06.154Z,8.30
2017-11-09T12:21:33.238Z,8.40
2017-11-09T12:23:59.557Z,8.40
2017-11-09T12:26:25.934Z,8.30
2017-11-09T12:28:52.255Z,8.40
2017-11-09T12:31:18.557Z,8.30
2017-11-09T12:33:44.893Z,8.30
2017-11-09T12:36:11.223Z,8.20
2017-11-09T12:38:37.523Z,8.30
2017-11-09T12:41:03.926Z,8.30
2017-11-09T12:43:30.237Z,8.40
2017-11-09T12:45:56.594Z,8.40
2017-11-09T12:48:23.691Z,8.60
2017-11-09T12:50:50.014Z,8.50
2017-11-09T12:53:16.363Z,8.60
2017-11-09T12:55:42.677Z,8.60
2017-11-09T12:58:08.997Z,8.60
2017-11-09T13:00:35.330Z,8.60
2017-11-09T13:03:01.681Z,8.60
2017-11-09T13:05:27.986Z,8.60
2017-11-09T13:07:54.332Z,8.60
2017-11-09T13:10:20.658Z,8.70
2017-11-09T13:12:46.992Z,8.60
2017-11-09T13:15:13.322Z,8.60
2017-11-09T13:17:39.645Z,8.60
2017-11-09T13:20:05.997Z,8.50
2017-11-09T13:22:32.332Z,8.50
2017-11-09T13:24:58.661Z,8.50
2017-11-09T13:27:25.024Z,8.60
2017-11-09T13:29:52.167Z,8.60
2017-11-09T13:32:18.493Z,8.50
2017-11-09T13:34:44.810Z,8.50
2017-11-09T13:37:11.127Z,8.60
2017-11-09T13:39:37.439Z,8.60
2017-11-09T13:42:03.797Z,8.60
2017-11-09T13:44:30.127Z,8.60
2017-11-09T13:46:56.426Z,8.70
2017-11-09T13:49:30.724Z,8.80
2017-11-09T13:51:57.771Z,8.80
2017-11-09T13:54:24.856Z,8.80
2017-11-09T13:56:51.175Z,8.80
2017-11-09T13:59:17.492Z,8.80
2017-11-09T14:01:43.919Z,8.90
2017-11-09T14:04:10.263Z,9.00
2017-11-09T14:06:36.587Z,8.90
2017-11-09T14:09:02.964Z,8.90
2017-11-09T14:11:29.283Z,8.80
2017-11-09T14:13:55.592Z,8.90
2017-11-09T14:16:21.885Z,8.80
2017-11-09T14:18:48.970Z,8.80
2017-11-09T14:21:15.260Z,8.70
2017-11-09T14:23:42.331Z,9.00
2017-11-09T14:26:08.682Z,9.00
2017-11-09T14:28:36.023Z,9.00
2017-11-09T14:31:02.345Z,8.90
2017-11-09T14:33:28.670Z,8.90
2017-11-09T14:35:54.966Z,8.90
2017-11-09T14:38:21.278Z,8.90
2017-11-09T14:40:47.609Z,8.80
2017-11-09T14:43:13.989Z,8.70
2017-11-09T14:45:40.307Z,8.60
2017-11-09T14:48:07.351Z,8.70
2017-11-09T14:50:34.466Z,8.60
2017-11-09T14:53:00.773Z,8.60
2017-11-09T14:55:27.105Z,8.70
2017-11-09T14:57:53.419Z,8.70
2017-11-09T15:00:19.762Z,8.70
2017-11-09T15:02:46.068Z,8.70
2017-11-09T15:05:12.388Z,8.70
2017-11-09T15:07:39.435Z,8.80
2017-11-09T15:10:05.749Z,8.70
2017-11-09T15:12:32.818Z,8.60
2017-11-09T15:14:59.876Z,8.70
2017-11-09T15:17:26.216Z,8.70
2017-11-09T15:19:52.551Z,8.70
2017-11-09T15:22:18.887Z,8.70
2017-11-09T15:24:45.961Z,8.70
2017-11-09T15:27:12.297Z,8.60
2017-11-09T15:29:38.622Z,8.60
2017-11-09T15:32:09.793Z,8.50
2017-11-09T15:34:36.868Z,8.60
2017-11-09T15:37:03.181Z,8.60
2017-11-09T15:39:29.506Z,8.50
2017-11-09T15:41:56.551Z,8.50
2017-11-09T15:44:23.623Z,8.60
2017-11-09T15:46:49.984Z,8.50
2017-11-09T15:49:16.293Z,8.60
2017-11-09T15:51:42.631Z,8.50
2017-11-09T15:54:08.992Z,8.50
2017-11-09T15:56:35.296Z,8.60
2017-11-09T15:59:01.614Z,8.50
2017-11-09T16:01:27.911Z,8.50
2017-11-09T16:03:54.966Z,8.40
2017-11-09T16:06:22.105Z,8.40
2017-11-09T16:08:48.719Z,8.40
2017-11-09T16:11:15.057Z,8.50
2017-11-09T16:13:41.738Z,8.50
2017-11-09T16:16:08.085Z,8.40
2017-11-09T16:18:37.394Z,8.30
2017-11-09T16:21:03.717Z,8.30
2017-11-09T16:23:30.018Z,8.30
2017-11-09T16:25:56.323Z,8.30
2017-11-09T16:28:22.626Z,8.30
2017-11-09T16:30:48.956Z,8.30
2017-11-09T16:33:15.301Z,8.30
2017-11-09T16:35:42.357Z,8.20
2017-11-09T16:38:08.680Z,8.10
2017-11-09T16:40:35.722Z,8.30
2017-11-09T16:43:02.051Z,8.20
2017-11-09T16:45:28.365Z,8.20
2017-11-09T16:47:54.702Z,8.10
2017-11-09T16:50:21.175Z,8.10
2017-11-09T16:52:51.531Z,8.00
2017-11-09T16:55:17.916Z,8.00
2017-11-09T16:57:45.002Z,8.00
2017-11-09T17:00:12.452Z,7.90
2017-11-09T17:02:39.025Z,7.80
2017-11-09T17:05:05.468Z,7.90
2017-11-09T17:07:31.772Z,7.90
2017-11-09T17:09:58.112Z,7.90
2017-11-09T17:12:24.406Z,7.90
2017-11-09T17:14:50.718Z,7.90
2017-11-09T17:17:17.785Z,7.90
2017-11-09T17:19:44.092Z,7.90
2017-11-09T17:22:10.374Z,7.80
2017-11-09T17:24:36.689Z,7.80
2017-11-09T17:27:03.030Z,7.80
2017-11-09T17:29:29.337Z,7.80
2017-11-09T17:31:55.631Z,7.80
2017-11-09T17:34:21.949Z,7.80
2017-11-09T17:36:48.296Z,7.80
2017-11-09T17:39:15.431Z,7.80
2017-11-09T17:41:42.499Z,7.70
2017-11-09T17:44:09.596Z,7.70
2017-11-09T17:46:35.937Z,7.70
2017-11-09T17:49:02.249Z,7.70
2017-11-09T17:51:30.617Z,7.70
2017-11-09T17:53:57.626Z,7.70
2017-11-09T17:56:24.072Z,7.70
2017-11-09T17:58:51.116Z,7.70
2017-11-09T18:01:18.162Z,7.70
2017-11-09T18:03:44.459Z,7.70
2017-11-09T18:06:10.762Z,7.80
2017-11-09T18:08:37.069Z,7.80
2017-11-09T18:11:04.175Z,7.90
2017-11-09T18:13:30.508Z,7.90
2017-11-09T18:15:56.826Z,8.00
2017-11-09T18:18:23.155Z,7.90
2017-11-09T18:20:49.457Z,7.90
2017-11-09T18:23:15.759Z,7.90
2017-11-09T18:25:42.835Z,7.80
2017-11-09T18:28:09.226Z,7.80
2017-11-09T18:30:36.322Z,8.00
2017-11-09T18:33:02.636Z,7.90
2017-11-09T18:35:28.958Z,8.00
2017-11-09T18:37:55.354Z,7.90
2017-11-09T18:40:21.648Z,7.90
2017-11-09T18:42:47.986Z,7.90
2017-11-09T18:45:14.303Z,7.90
2017-11-09T18:47:40.619Z,7.90
2017-11-09T18:50:06.946Z,7.80
2017-11-09T18:52:33.280Z,7.80
2017-11-09T18:54:59.569Z,7.80
2017-11-09T18:57:25.866Z,7.80
2017-11-09T18:59:52.286Z,7.90
2017-11-09T19:02:18.581Z,7.90
2017-11-09T19:04:44.907Z,7.90
2017-11-09T19:07:11.951Z,8.00
2017-11-09T19:09:39.106Z,8.10
2017-11-09T19:12:05.423Z,8.00
2017-11-09T19:14:32.490Z,7.80
2017-11-09T19:16:59.539Z,7.90
2017-11-09T19:19:26.608Z,7.90
2017-11-09T19:21:52.897Z,7.80
2017-11-09T19:24:19.247Z,7.90
2017-11-09T19:26:46.288Z,7.90
2017-11-09T19:29:13.338Z,7.90
2017-11-09T19:31:39.654Z,7.90
2017-11-09T19:34:05.969Z,7.80
2017-11-09T19:36:32.272Z,7.90
2017-11-09T19:38:58.576Z,7.90
2017-11-09T19:41:24.920Z,7.80
2017-11-09T19:43:51.274Z,7.80
2017-11-09T19:46:17.580Z,7.90
2017-11-09T19:48:43.910Z,7.90
2017-11-09T19:51:10.227Z,8.00
2017-11-09T19:53:36.563Z,8.00
2017-11-09T19:56:02.855Z,8.00
2017-11-09T19:58:29.194Z,8.00
2017-11-09T20:00:56.226Z,8.00
2017-11-09T20:03:23.277Z,7.90
2017-11-09T20:05:50.342Z,7.90
2017-11-09T20:08:17.374Z,7.90
2017-11-09T20:10:44.497Z,7.80
2017-11-09T20:13:17.839Z,7.80
2017-11-09T20:15:44.210Z,7.80
2017-11-09T20:18:10.610Z,7.80
2017-11-09T20:20:36.955Z,7.90
2017-11-09T20:23:03.372Z,7.90
2017-11-09T20:25:29.772Z,7.80
2017-11-09T20:27:56.890Z,7.80
2017-11-09T20:30:23.269Z,7.70
2017-11-09T20:32:49.689Z,7.70
2017-11-09T20:35:16.906Z,7.70
2017-11-09T20:37:44.033Z,7.70
2017-11-09T20:40:10.433Z,7.70
2017-11-09T20:42:36.979Z,7.70
2017-11-09T20:45:03.569Z,7.70
2017-11-09T20:47:30.768Z,7.70
2017-11-09T20:49:57.227Z,7.70
2017-11-09T20:52:23.755Z,7.70
2017-11-09T20:54:51.112Z,7.60
2017-11-09T20:57:17.465Z,7.60
2017-11-09T20:59:43.782Z,7.60
2017-11-09T21:02:10.077Z,7.60
2017-11-09T21:04:36.402Z,7.50
2017-11-09T21:07:02.764Z,7.40
2017-11-09T21:09:29.069Z,7.50
2017-11-09T21:11:56.161Z,7.40
2017-11-09T21:14:22.455Z,7.30
2017-11-09T21:16:48.758Z,7.40
2017-11-09T21:19:15.819Z,7.50
2017-11-09T21:21:42.142Z,7.40
2017-11-09T21:24:09.196Z,7.50
2017-11-09T21:26:35.486Z,7.50
2017-11-09T21:29:01.784Z,7.50
2017-11-09T21:31:28.118Z,7.40
2017-11-09T21:33:54.441Z,7.50
2017-11-09T21:36:20.749Z,7.40
2017-11-09T21:38:47.058Z,7.50
2017-11-09T21:41:13.384Z,7.40
2017-11-09T21:43:40.467Z,7.40
2017-11-09T21:46:06.794Z,7.40
2017-11-09T21:48:33.903Z,7.40
2017-11-09T21:51:00.374Z,7.50
2017-11-09T21:53:26.719Z,7.50
2017-11-09T21:55:53.017Z,7.50
2017-11-09T21:58:20.831Z,7.50
2017-11-09T22:00:47.138Z,7.40
2017-11-09T22:03:14.232Z,7.60
2017-11-09T22:05:40.550Z,7.50
2017-11-09T22:08:06.901Z,7.50
2017-11-09T22:10:33.200Z,7.60
2017-11-09T22:12:59.512Z,7.70
2017-11-09T22:15:25.870Z,7.60
2017-11-09T22:17:52.154Z,7.60
2017-11-09T22:20:19.217Z,7.60
2017-11-09T22:22:46.248Z,7.60
2017-11-09T22:25:12.600Z,7.60
2017-11-09T22:27:38.925Z,7.60
2017-11-09T22:30:05.868Z,7.60
2017-11-09T22:32:32.157Z,7.60
2017-11-09T22:34:58.447Z,7.60
2017-11-09T22:37:24.742Z,7.70
2017-11-09T22:39:51.799Z,7.60
2017-11-09T22:42:18.112Z,7.60
2017-11-09T22:44:44.437Z,7.80
2017-11-09T22:47:11.480Z,7.70
2017-11-09T22:49:38.529Z,7.80
2017-11-09T22:52:05.587Z,7.70
2017-11-09T22:54:31.892Z,7.70
2017-11-09T22:56:58.923Z,7.80
2017-11-09T22:59:25.230Z,7.80
2017-11-09T23:01:51.515Z,7.80
2017-11-09T23:04:17.830Z,7.70
2017-11-09T23:06:44.898Z,7.80
2017-11-09T23:09:11.938Z,7.80
2017-11-09T23:11:39.060Z,7.80
2017-11-09T23:14:05.366Z,7.80
2017-11-09T23:16:31.662Z,7.80
2017-11-09T23:18:58.680Z,7.90
2017-11-09T23:21:25.003Z,7.80
2017-11-09T23:23:51.305Z,7.90
2017-11-09T23:26:17.687Z,7.80
2017-11-09T23:28:43.986Z,7.90
2017-11-09T23:31:10.291Z,7.90
2017-11-09T23:33:36.613Z,7.90
2017-11-09T23:36:02.965Z,7.90
2017-11-09T23:38:29.246Z,7.90
2017-11-09T23:40:56.272Z,7.80
2017-11-09T23:43:23.321Z,8.00
2017-11-09T23:45:50.356Z,8.00
2017-11-09T23:48:16.663Z,7.90
2017-11-09T23:50:42.937Z,8.00
2017-11-09T23:53:09.991Z,7.90
2017-11-09T23:55:37.026Z,7.80
2017-11-09T23:58:04.085Z,7.90
